Disclaimer

Please do not use the information listed here in-flight or in-navigation, as they are not provided to us by the airports but are provided by volunteers, so they might be outdated.

Search


Regions


Airport information page

No radio frequency information is available.

Airport informations:
Latitude: 51° 34' 17.00" N
Longitude: 000° 41' 44.00" E
Elevation: 49 feet - 15 meters
Operating hours: N/A
Operating agency: Civil government, landing fees and diplomatic clearance may be required
Timezone: UTC 0(+1DT)
Fuel: Jet A1, without icing nhibitor.

100/130 MIL Spec, low lead, aviation gasoline (BLUE)

Runway information:
06/24 - 5023 x 121 feet< - >1531 x 37 meters

Recent METARs:
EGMC 201350Z 08013KT 9999 -SHRA FEW010 BKN017 04/02 Q1006
EGMC 201420Z 08011KT 9000 -SHRA FEW009 BKN015 03/00 Q1005
EGMC 201450Z 07011KT 9000 -RA FEW015 BKN032 03/00 Q1005

Airport on the map: